sensor_id;sensor_type;location;lat;lon;timestamp;temperature;humidity
2657;DHT22;1338;48.176;11.792;2022-12-18T00:00:06;-5.90;99.90
2657;DHT22;1338;48.176;11.792;2022-12-18T00:02:40;-5.80;99.90
2657;DHT22;1338;48.176;11.792;2022-12-18T00:05:10;-6.00;99.90
2657;DHT22;1338;48.176;11.792;2022-12-18T00:07:39;-6.20;99.90
2657;DHT22;1338;48.176;11.792;2022-12-18T00:10:07;-6.10;99.90
2657;DHT22;1338;48.176;11.792;2022-12-18T00:12:36;-6.10;99.90
2657;DHT22;1338;48.176;11.792;2022-12-18T00:15:04;-6.10;99.90
2657;DHT22;1338;48.176;11.792;2022-12-18T00:17:33;-6.20;99.90
2657;DHT22;1338;48.176;11.792;2022-12-18T00:20:03;-5.80;1.00
2657;DHT22;1338;48.176;11.792;2022-12-18T00:22:31;-6.00;99.90
2657;DHT22;1338;48.176;11.792;2022-12-18T00:25:00;-6.00;99.90
2657;DHT22;1338;48.176;11.792;2022-12-18T00:27:28;-5.70;1.00
2657;DHT22;1338;48.176;11.792;2022-12-18T00:29:56;-6.00;99.90
2657;DHT22;1338;48.176;11.792;2022-12-18T00:32:25;-5.80;99.90
2657;DHT22;1338;48.176;11.792;2022-12-18T00:34:53;-6.00;99.90
2657;DHT22;1338;48.176;11.792;2022-12-18T00:37:23;-5.50;99.90
2657;DHT22;1338;48.176;11.792;2022-12-18T00:39:51;-5.60;99.90
2657;DHT22;1338;48.176;11.792;2022-12-18T00:42:19;-5.80;99.90
2657;DHT22;1338;48.176;11.792;2022-12-18T00:45:05;-5.90;99.90
2657;DHT22;1338;48.176;11.792;2022-12-18T00:47:38;-5.70;99.90
2657;DHT22;1338;48.176;11.792;2022-12-18T00:50:08;-5.30;99.90
2657;DHT22;1338;48.176;11.792;2022-12-18T00:52:41;-5.40;99.90
2657;DHT22;1338;48.176;11.792;2022-12-18T00:55:10;-5.70;99.90
2657;DHT22;1338;48.176;11.792;2022-12-18T00:57:38;-5.80;99.90
2657;DHT22;1338;48.176;11.792;2022-12-18T01:00:09;-6.00;99.90
2657;DHT22;1338;48.176;11.792;2022-12-18T01:02:37;-5.60;99.90
2657;DHT22;1338;48.176;11.792;2022-12-18T01:05:07;-5.80;99.90
2657;DHT22;1338;48.176;11.792;2022-12-18T01:07:35;-5.80;99.90
2657;DHT22;1338;48.176;11.792;2022-12-18T01:10:06;-5.80;99.90
2657;DHT22;1338;48.176;11.792;2022-12-18T01:12:35;-5.90;99.90
2657;DHT22;1338;48.176;11.792;2022-12-18T01:15:05;-5.80;99.90
2657;DHT22;1338;48.176;11.792;2022-12-18T01:17:34;-5.50;1.00
2657;DHT22;1338;48.176;11.792;2022-12-18T01:20:04;-5.70;99.90
2657;DHT22;1338;48.176;11.792;2022-12-18T01:22:35;-5.80;99.90
2657;DHT22;1338;48.176;11.792;2022-12-18T01:25:08;-5.90;99.90
2657;DHT22;1338;48.176;11.792;2022-12-18T01:27:36;-5.60;1.00
2657;DHT22;1338;48.176;11.792;2022-12-18T01:30:05;-5.40;1.00
2657;DHT22;1338;48.176;11.792;2022-12-18T01:32:34;-5.80;99.90
2657;DHT22;1338;48.176;11.792;2022-12-18T01:35:03;-5.80;99.90
2657;DHT22;1338;48.176;11.792;2022-12-18T01:37:31;-5.60;99.90
2657;DHT22;1338;48.176;11.792;2022-12-18T01:39:59;-5.50;99.90
2657;DHT22;1338;48.176;11.792;2022-12-18T01:42:29;-5.70;99.90
2657;DHT22;1338;48.176;11.792;2022-12-18T01:45:00;-5.70;99.90
2657;DHT22;1338;48.176;11.792;2022-12-18T01:47:39;-5.80;99.90
2657;DHT22;1338;48.176;11.792;2022-12-18T01:50:14;-5.80;99.90
2657;DHT22;1338;48.176;11.792;2022-12-18T01:52:47;-5.70;1.00
2657;DHT22;1338;48.176;11.792;2022-12-18T01:55:18;-5.70;1.00
2657;DHT22;1338;48.176;11.792;2022-12-18T01:57:49;-5.80;99.90
2657;DHT22;1338;48.176;11.792;2022-12-18T02:00:21;-5.80;99.90
2657;DHT22;1338;48.176;11.792;2022-12-18T02:02:51;-5.60;1.00
2657;DHT22;1338;48.176;11.792;2022-12-18T02:05:26;-5.70;1.00
2657;DHT22;1338;48.176;11.792;2022-12-18T02:08:04;-5.80;1.00
2657;DHT22;1338;48.176;11.792;2022-12-18T02:10:42;-5.80;1.00
2657;DHT22;1338;48.176;11.792;2022-12-18T02:13:19;-5.70;1.00
2657;DHT22;1338;48.176;11.792;2022-12-18T02:15:54;-5.70;1.00
2657;DHT22;1338;48.176;11.792;2022-12-18T02:18:26;-5.10;1.00
2657;DHT22;1338;48.176;11.792;2022-12-18T02:20:59;-5.30;1.00
2657;DHT22;1338;48.176;11.792;2022-12-18T02:23:47;-5.60;99.90
2657;DHT22;1338;48.176;11.792;2022-12-18T02:26:23;-5.60;99.90
2657;DHT22;1338;48.176;11.792;2022-12-18T02:28:56;-5.70;99.90
2657;DHT22;1338;48.176;11.792;2022-12-18T02:31:30;-5.60;1.00
2657;DHT22;1338;48.176;11.792;2022-12-18T02:34:02;-5.70;99.90
2657;DHT22;1338;48.176;11.792;2022-12-18T02:36:39;-5.70;99.90
2657;DHT22;1338;48.176;11.792;2022-12-18T02:39:10;-5.70;99.90
2657;DHT22;1338;48.176;11.792;2022-12-18T02:41:49;-5.60;1.00
2657;DHT22;1338;48.176;11.792;2022-12-18T02:44:19;-5.70;1.00
2657;DHT22;1338;48.176;11.792;2022-12-18T02:46:50;-5.30;1.00
2657;DHT22;1338;48.176;11.792;2022-12-18T02:49:30;-5.50;1.00
2657;DHT22;1338;48.176;11.792;2022-12-18T02:52:07;-5.60;1.00
2657;DHT22;1338;48.176;11.792;2022-12-18T02:54:50;-5.70;99.90
2657;DHT22;1338;48.176;11.792;2022-12-18T02:57:32;-5.30;1.00
2657;DHT22;1338;48.176;11.792;2022-12-18T03:00:05;-5.60;1.00
2657;DHT22;1338;48.176;11.792;2022-12-18T03:02:39;-5.70;99.90
2657;DHT22;1338;48.176;11.792;2022-12-18T03:05:16;-5.70;99.90
2657;DHT22;1338;48.176;11.792;2022-12-18T03:07:49;-5.70;1.00
2657;DHT22;1338;48.176;11.792;2022-12-18T03:10:24;-5.70;1.00
2657;DHT22;1338;48.176;11.792;2022-12-18T03:12:59;-5.30;1.00
2657;DHT22;1338;48.176;11.792;2022-12-18T03:15:33;-5.60;1.00
2657;DHT22;1338;48.176;11.792;2022-12-18T03:18:10;-5.70;99.90
2657;DHT22;1338;48.176;11.792;2022-12-18T03:20:42;-5.70;1.00
2657;DHT22;1338;48.176;11.792;2022-12-18T03:23:16;-5.80;1.00
2657;DHT22;1338;48.176;11.792;2022-12-18T03:25:52;-5.70;1.00
2657;DHT22;1338;48.176;11.792;2022-12-18T03:28:24;-5.60;1.00
2657;DHT22;1338;48.176;11.792;2022-12-18T03:31:00;-5.80;99.90
2657;DHT22;1338;48.176;11.792;2022-12-18T03:33:32;-5.70;1.00
2657;DHT22;1338;48.176;11.792;2022-12-18T03:36:04;-5.60;1.00
2657;DHT22;1338;48.176;11.792;2022-12-18T03:38:32;-5.80;99.90
2657;DHT22;1338;48.176;11.792;2022-12-18T03:41:07;-5.80;99.90
2657;DHT22;1338;48.176;11.792;2022-12-18T03:44:03;-5.60;1.00
2657;DHT22;1338;48.176;11.792;2022-12-18T03:46:40;-5.80;1.00
2657;DHT22;1338;48.176;11.792;2022-12-18T03:49:12;-5.70;1.00
2657;DHT22;1338;48.176;11.792;2022-12-18T03:51:50;-5.80;1.00
2657;DHT22;1338;48.176;11.792;2022-12-18T03:54:22;-5.80;1.00
2657;DHT22;1338;48.176;11.792;2022-12-18T03:56:59;-5.70;1.00
2657;DHT22;1338;48.176;11.792;2022-12-18T03:59:31;-5.70;1.00
2657;DHT22;1338;48.176;11.792;2022-12-18T04:02:01;-5.60;1.00
2657;DHT22;1338;48.176;11.792;2022-12-18T04:04:33;-5.70;1.00
2657;DHT22;1338;48.176;11.792;2022-12-18T04:07:04;-5.70;1.00
2657;DHT22;1338;48.176;11.792;2022-12-18T04:09:36;-5.70;1.00
2657;DHT22;1338;48.176;11.792;2022-12-18T04:12:08;-5.60;1.00
2657;DHT22;1338;48.176;11.792;2022-12-18T04:14:38;-5.40;1.00
2657;DHT22;1338;48.176;11.792;2022-12-18T04:17:09;-5.80;1.00
2657;DHT22;1338;48.176;11.792;2022-12-18T04:19:37;-5.80;1.00
2657;DHT22;1338;48.176;11.792;2022-12-18T04:22:09;-5.60;1.00
2657;DHT22;1338;48.176;11.792;2022-12-18T04:24:42;-5.70;1.00
2657;DHT22;1338;48.176;11.792;2022-12-18T04:27:18;-5.60;1.00
2657;DHT22;1338;48.176;11.792;2022-12-18T04:29:51;-5.70;1.00
2657;DHT22;1338;48.176;11.792;2022-12-18T04:32:19;-5.60;1.00
2657;DHT22;1338;48.176;11.792;2022-12-18T04:34:48;-5.70;1.00
2657;DHT22;1338;48.176;11.792;2022-12-18T04:37:16;-5.70;1.00
2657;DHT22;1338;48.176;11.792;2022-12-18T04:39:46;-5.60;1.00
2657;DHT22;1338;48.176;11.792;2022-12-18T04:42:22;-5.40;1.00
2657;DHT22;1338;48.176;11.792;2022-12-18T04:44:51;-5.60;1.00
2657;DHT22;1338;48.176;11.792;2022-12-18T04:47:20;-5.50;1.00
2657;DHT22;1338;48.176;11.792;2022-12-18T04:49:48;-5.50;1.00
2657;DHT22;1338;48.176;11.792;2022-12-18T04:52:16;-5.60;99.90
2657;DHT22;1338;48.176;11.792;2022-12-18T04:54:45;-5.60;1.00
2657;DHT22;1338;48.176;11.792;2022-12-18T04:57:13;-5.50;1.00
2657;DHT22;1338;48.176;11.792;2022-12-18T04:59:41;-5.60;99.90
2657;DHT22;1338;48.176;11.792;2022-12-18T05:02:11;-5.50;99.90
2657;DHT22;1338;48.176;11.792;2022-12-18T05:04:39;-5.40;99.90
2657;DHT22;1338;48.176;11.792;2022-12-18T05:07:08;-5.50;99.90
2657;DHT22;1338;48.176;11.792;2022-12-18T05:09:36;-5.50;99.90
2657;DHT22;1338;48.176;11.792;2022-12-18T05:12:04;-5.50;99.90
2657;DHT22;1338;48.176;11.792;2022-12-18T05:14:33;-5.40;99.90
2657;DHT22;1338;48.176;11.792;2022-12-18T05:17:01;-5.30;99.90
2657;DHT22;1338;48.176;11.792;2022-12-18T05:19:30;-5.40;99.90
2657;DHT22;1338;48.176;11.792;2022-12-18T05:21:59;-5.40;99.90
2657;DHT22;1338;48.176;11.792;2022-12-18T05:24:28;-5.50;99.90
2657;DHT22;1338;48.176;11.792;2022-12-18T05:26:56;-5.40;99.90
2657;DHT22;1338;48.176;11.792;2022-12-18T05:29:25;-5.50;99.90
2657;DHT22;1338;48.176;11.792;2022-12-18T05:31:53;-5.40;99.90
2657;DHT22;1338;48.176;11.792;2022-12-18T05:34:21;-5.50;99.90
2657;DHT22;1338;48.176;11.792;2022-12-18T05:36:51;-5.50;99.90
2657;DHT22;1338;48.176;11.792;2022-12-18T05:39:19;-5.50;99.90
2657;DHT22;1338;48.176;11.792;2022-12-18T05:41:47;-5.60;99.90
2657;DHT22;1338;48.176;11.792;2022-12-18T05:44:15;-5.40;1.00
2657;DHT22;1338;48.176;11.792;2022-12-18T05:46:43;-5.50;99.90
2657;DHT22;1338;48.176;11.792;2022-12-18T05:49:11;-5.40;99.90
2657;DHT22;1338;48.176;11.792;2022-12-18T05:51:39;-5.50;99.90
2657;DHT22;1338;48.176;11.792;2022-12-18T05:54:09;-5.50;99.90
2657;DHT22;1338;48.176;11.792;2022-12-18T05:56:38;-5.50;99.90
2657;DHT22;1338;48.176;11.792;2022-12-18T05:59:14;-5.70;99.90
2657;DHT22;1338;48.176;11.792;2022-12-18T06:01:42;-5.50;99.90
2657;DHT22;1338;48.176;11.792;2022-12-18T06:04:11;-5.50;99.90
2657;DHT22;1338;48.176;11.792;2022-12-18T06:06:39;-5.50;99.90
2657;DHT22;1338;48.176;11.792;2022-12-18T06:09:09;-5.60;99.90
2657;DHT22;1338;48.176;11.792;2022-12-18T06:11:38;-5.60;99.90
2657;DHT22;1338;48.176;11.792;2022-12-18T06:14:06;-5.60;99.90
2657;DHT22;1338;48.176;11.792;2022-12-18T06:16:35;-5.60;99.90
2657;DHT22;1338;48.176;11.792;2022-12-18T06:19:05;-5.60;99.90
2657;DHT22;1338;48.176;11.792;2022-12-18T06:21:33;-5.50;99.90
2657;DHT22;1338;48.176;11.792;2022-12-18T06:24:02;-5.40;1.00
2657;DHT22;1338;48.176;11.792;2022-12-18T06:26:31;-5.50;99.90
2657;DHT22;1338;48.176;11.792;2022-12-18T06:28:59;-5.60;99.90
2657;DHT22;1338;48.176;11.792;2022-12-18T06:31:27;-5.60;99.90
2657;DHT22;1338;48.176;11.792;2022-12-18T06:33:56;-5.50;99.90
2657;DHT22;1338;48.176;11.792;2022-12-18T06:36:24;-5.60;99.90
2657;DHT22;1338;48.176;11.792;2022-12-18T06:38:52;-5.50;99.90
2657;DHT22;1338;48.176;11.792;2022-12-18T06:41:21;-5.60;99.90
2657;DHT22;1338;48.176;11.792;2022-12-18T06:43:51;-5.60;99.90
2657;DHT22;1338;48.176;11.792;2022-12-18T06:46:25;-5.60;99.90
2657;DHT22;1338;48.176;11.792;2022-12-18T06:48:53;-5.60;99.90
2657;DHT22;1338;48.176;11.792;2022-12-18T06:51:24;-5.70;99.90
2657;DHT22;1338;48.176;11.792;2022-12-18T06:53:53;-5.70;99.90
2657;DHT22;1338;48.176;11.792;2022-12-18T06:56:21;-5.70;99.90
2657;DHT22;1338;48.176;11.792;2022-12-18T06:58:51;-5.70;99.90
2657;DHT22;1338;48.176;11.792;2022-12-18T07:01:19;-5.80;99.90
2657;DHT22;1338;48.176;11.792;2022-12-18T07:03:51;-5.90;99.90
2657;DHT22;1338;48.176;11.792;2022-12-18T07:06:22;-5.90;99.90
2657;DHT22;1338;48.176;11.792;2022-12-18T07:08:51;-5.90;99.90
2657;DHT22;1338;48.176;11.792;2022-12-18T07:11:20;-5.80;99.90
2657;DHT22;1338;48.176;11.792;2022-12-18T07:13:48;-5.90;99.90
2657;DHT22;1338;48.176;11.792;2022-12-18T07:16:20;-5.80;99.90
2657;DHT22;1338;48.176;11.792;2022-12-18T07:18:52;-5.90;99.90
2657;DHT22;1338;48.176;11.792;2022-12-18T07:21:21;-5.90;99.90
2657;DHT22;1338;48.176;11.792;2022-12-18T07:23:50;-5.80;99.90
2657;DHT22;1338;48.176;11.792;2022-12-18T07:26:20;-5.90;99.90
2657;DHT22;1338;48.176;11.792;2022-12-18T07:28:49;-5.70;99.90
2657;DHT22;1338;48.176;11.792;2022-12-18T07:31:20;-5.60;99.90
2657;DHT22;1338;48.176;11.792;2022-12-18T07:33:49;-5.80;99.90
2657;DHT22;1338;48.176;11.792;2022-12-18T07:36:18;-5.90;99.90
2657;DHT22;1338;48.176;11.792;2022-12-18T07:38:53;-5.60;99.90
2657;DHT22;1338;48.176;11.792;2022-12-18T07:41:22;-5.70;99.90
2657;DHT22;1338;48.176;11.792;2022-12-18T07:43:51;-5.80;99.90
2657;DHT22;1338;48.176;11.792;2022-12-18T07:46:20;-5.80;99.90
2657;DHT22;1338;48.176;11.792;2022-12-18T07:48:49;-5.80;99.90
2657;DHT22;1338;48.176;11.792;2022-12-18T07:51:20;-5.70;99.90
2657;DHT22;1338;48.176;11.792;2022-12-18T07:53:49;-5.60;99.90
2657;DHT22;1338;48.176;11.792;2022-12-18T07:56:19;-5.70;99.90
2657;DHT22;1338;48.176;11.792;2022-12-18T07:58:57;-5.60;99.90
2657;DHT22;1338;48.176;11.792;2022-12-18T08:01:27;-5.50;99.90
2657;DHT22;1338;48.176;11.792;2022-12-18T08:03:56;-5.50;99.90
2657;DHT22;1338;48.176;11.792;2022-12-18T08:06:25;-5.40;99.90
2657;DHT22;1338;48.176;11.792;2022-12-18T08:08:54;-5.40;84.00
2657;DHT22;1338;48.176;11.792;2022-12-18T08:11:24;-5.60;73.90
2657;DHT22;1338;48.176;11.792;2022-12-18T08:13:53;-5.40;99.90
2657;DHT22;1338;48.176;11.792;2022-12-18T08:16:22;-5.50;14.70
2657;DHT22;1338;48.176;11.792;2022-12-18T08:18:53;-5.50;29.80
2657;DHT22;1338;48.176;11.792;2022-12-18T08:21:23;-5.40;11.00
2657;DHT22;1338;48.176;11.792;2022-12-18T08:23:52;-5.30;1.00
2657;DHT22;1338;48.176;11.792;2022-12-18T08:26:20;-5.20;1.00
2657;DHT22;1338;48.176;11.792;2022-12-18T08:28:49;-5.40;1.00
2657;DHT22;1338;48.176;11.792;2022-12-18T08:31:18;-5.20;1.00
2657;DHT22;1338;48.176;11.792;2022-12-18T08:33:48;-4.00;1.00
2657;DHT22;1338;48.176;11.792;2022-12-18T08:36:19;-4.20;1.00
2657;DHT22;1338;48.176;11.792;2022-12-18T08:38:47;-5.10;99.90
2657;DHT22;1338;48.176;11.792;2022-12-18T08:41:17;-5.10;99.90
2657;DHT22;1338;48.176;11.792;2022-12-18T08:43:45;-5.10;3.80
2657;DHT22;1338;48.176;11.792;2022-12-18T08:46:34;-5.00;1.00
2657;DHT22;1338;48.176;11.792;2022-12-18T08:49:03;-5.10;1.00
2657;DHT22;1338;48.176;11.792;2022-12-18T08:51:33;-5.20;1.00
2657;DHT22;1338;48.176;11.792;2022-12-18T08:54:03;-5.10;1.00
2657;DHT22;1338;48.176;11.792;2022-12-18T08:56:32;-4.80;1.00
2657;DHT22;1338;48.176;11.792;2022-12-18T08:59:01;-5.10;1.00
2657;DHT22;1338;48.176;11.792;2022-12-18T09:01:29;-4.90;1.00
2657;DHT22;1338;48.176;11.792;2022-12-18T09:03:59;-4.90;1.00
2657;DHT22;1338;48.176;11.792;2022-12-18T09:06:27;-4.90;1.00
2657;DHT22;1338;48.176;11.792;2022-12-18T09:08:57;-5.00;1.00
2657;DHT22;1338;48.176;11.792;2022-12-18T09:11:27;-4.80;1.00
2657;DHT22;1338;48.176;11.792;2022-12-18T09:13:56;-4.60;1.00
2657;DHT22;1338;48.176;11.792;2022-12-18T09:16:25;-4.50;1.00
2657;DHT22;1338;48.176;11.792;2022-12-18T09:18:59;-4.40;1.00
2657;DHT22;1338;48.176;11.792;2022-12-18T09:21:29;-4.50;1.00
2657;DHT22;1338;48.176;11.792;2022-12-18T09:24:03;-4.40;1.00
2657;DHT22;1338;48.176;11.792;2022-12-18T09:26:34;-4.40;1.00
2657;DHT22;1338;48.176;11.792;2022-12-18T09:29:02;-4.40;1.00
2657;DHT22;1338;48.176;11.792;2022-12-18T09:31:31;-4.20;1.00
2657;DHT22;1338;48.176;11.792;2022-12-18T09:33:59;-4.30;1.00
2657;DHT22;1338;48.176;11.792;2022-12-18T09:36:27;-4.30;1.00
2657;DHT22;1338;48.176;11.792;2022-12-18T09:38:55;-4.30;1.00
2657;DHT22;1338;48.176;11.792;2022-12-18T09:41:40;-4.30;1.00
2657;DHT22;1338;48.176;11.792;2022-12-18T09:44:19;-4.10;1.00
2657;DHT22;1338;48.176;11.792;2022-12-18T09:46:53;-4.00;1.00
2657;DHT22;1338;48.176;11.792;2022-12-18T09:49:24;-4.00;1.00
2657;DHT22;1338;48.176;11.792;2022-12-18T09:51:57;-4.00;1.00
2657;DHT22;1338;48.176;11.792;2022-12-18T09:54:33;-4.10;1.00
2657;DHT22;1338;48.176;11.792;2022-12-18T09:57:04;-4.00;1.00
2657;DHT22;1338;48.176;11.792;2022-12-18T09:59:36;-4.10;1.00
2657;DHT22;1338;48.176;11.792;2022-12-18T10:02:15;-3.80;1.00
2657;DHT22;1338;48.176;11.792;2022-12-18T10:04:50;-4.00;1.00
2657;DHT22;1338;48.176;11.792;2022-12-18T10:07:27;-4.00;1.00
2657;DHT22;1338;48.176;11.792;2022-12-18T10:10:04;-3.90;1.00
2657;DHT22;1338;48.176;11.792;2022-12-18T10:12:43;-3.80;1.00
2657;DHT22;1338;48.176;11.792;2022-12-18T10:15:16;-3.50;1.00
2657;DHT22;1338;48.176;11.792;2022-12-18T10:17:53;-3.40;1.00
2657;DHT22;1338;48.176;11.792;2022-12-18T10:20:27;-3.70;1.00
2657;DHT22;1338;48.176;11.792;2022-12-18T10:23:03;-3.60;1.00
2657;DHT22;1338;48.176;11.792;2022-12-18T10:25:38;-3.80;1.00
2657;DHT22;1338;48.176;11.792;2022-12-18T10:28:12;-3.50;1.00
2657;DHT22;1338;48.176;11.792;2022-12-18T10:30:42;-3.80;1.00
2657;DHT22;1338;48.176;11.792;2022-12-18T10:33:12;-3.70;1.00
2657;DHT22;1338;48.176;11.792;2022-12-18T10:35:43;-3.60;1.00
2657;DHT22;1338;48.176;11.792;2022-12-18T10:38:24;-3.30;1.00
2657;DHT22;1338;48.176;11.792;2022-12-18T10:40:54;-3.10;1.00
2657;DHT22;1338;48.176;11.792;2022-12-18T10:43:26;-2.70;1.00
2657;DHT22;1338;48.176;11.792;2022-12-18T10:46:04;-3.40;1.00
2657;DHT22;1338;48.176;11.792;2022-12-18T10:48:34;-3.40;1.00
2657;DHT22;1338;48.176;11.792;2022-12-18T10:51:06;-3.10;1.00
2657;DHT22;1338;48.176;11.792;2022-12-18T10:53:41;-3.10;1.00
2657;DHT22;1338;48.176;11.792;2022-12-18T10:56:10;-3.30;1.00
2657;DHT22;1338;48.176;11.792;2022-12-18T10:58:40;-3.30;1.00
2657;DHT22;1338;48.176;11.792;2022-12-18T11:01:11;-3.30;1.00
2657;DHT22;1338;48.176;11.792;2022-12-18T11:03:41;-3.10;1.00
2657;DHT22;1338;48.176;11.792;2022-12-18T11:06:11;-3.40;1.00
2657;DHT22;1338;48.176;11.792;2022-12-18T11:08:41;-3.30;1.00
2657;DHT22;1338;48.176;11.792;2022-12-18T11:11:19;-3.00;1.00
2657;DHT22;1338;48.176;11.792;2022-12-18T11:14:01;-2.70;1.00
2657;DHT22;1338;48.176;11.792;2022-12-18T11:16:33;-3.00;1.00
2657;DHT22;1338;48.176;11.792;2022-12-18T11:19:17;-3.10;1.00
2657;DHT22;1338;48.176;11.792;2022-12-18T11:21:48;-2.80;1.00
2657;DHT22;1338;48.176;11.792;2022-12-18T11:24:22;-2.50;1.00
2657;DHT22;1338;48.176;11.792;2022-12-18T11:26:53;-2.50;1.00
2657;DHT22;1338;48.176;11.792;2022-12-18T11:29:32;-2.40;1.00
2657;DHT22;1338;48.176;11.792;2022-12-18T11:32:31;-2.60;1.00
2657;DHT22;1338;48.176;11.792;2022-12-18T11:35:10;-2.50;1.00
2657;DHT22;1338;48.176;11.792;2022-12-18T11:37:43;-2.70;1.00
2657;DHT22;1338;48.176;11.792;2022-12-18T11:40:16;-3.00;1.00
2657;DHT22;1338;48.176;11.792;2022-12-18T11:42:50;-3.00;1.00
2657;DHT22;1338;48.176;11.792;2022-12-18T11:45:29;-2.70;1.00
2657;DHT22;1338;48.176;11.792;2022-12-18T11:48:02;-2.40;1.00
2657;DHT22;1338;48.176;11.792;2022-12-18T11:50:43;-2.10;1.00
2657;DHT22;1338;48.176;11.792;2022-12-18T11:53:13;-2.50;1.00
2657;DHT22;1338;48.176;11.792;2022-12-18T11:55:50;-2.60;1.00
2657;DHT22;1338;48.176;11.792;2022-12-18T11:58:29;-2.60;1.00
2657;DHT22;1338;48.176;11.792;2022-12-18T12:01:08;-2.60;1.00
2657;DHT22;1338;48.176;11.792;2022-12-18T12:03:52;-2.80;1.00
2657;DHT22;1338;48.176;11.792;2022-12-18T12:06:30;-2.50;1.00
2657;DHT22;1338;48.176;11.792;2022-12-18T12:09:07;-2.70;1.00
2657;DHT22;1338;48.176;11.792;2022-12-18T12:11:48;-2.40;1.00
2657;DHT22;1338;48.176;11.792;2022-12-18T12:14:31;-2.40;1.00
2657;DHT22;1338;48.176;11.792;2022-12-18T12:17:07;-2.40;1.00
2657;DHT22;1338;48.176;11.792;2022-12-18T12:19:46;-2.50;1.00
2657;DHT22;1338;48.176;11.792;2022-12-18T12:22:23;-2.20;1.00
2657;DHT22;1338;48.176;11.792;2022-12-18T12:25:13;-1.90;1.00
2657;DHT22;1338;48.176;11.792;2022-12-18T12:27:49;-2.40;1.00
2657;DHT22;1338;48.176;11.792;2022-12-18T12:30:23;-2.30;1.00
2657;DHT22;1338;48.176;11.792;2022-12-18T12:33:06;-2.10;1.00
2657;DHT22;1338;48.176;11.792;2022-12-18T12:35:44;-2.20;1.00
2657;DHT22;1338;48.176;11.792;2022-12-18T12:38:17;-2.80;1.00
2657;DHT22;1338;48.176;11.792;2022-12-18T12:40:52;-3.10;1.00
2657;DHT22;1338;48.176;11.792;2022-12-18T12:43:34;-2.80;1.00
2657;DHT22;1338;48.176;11.792;2022-12-18T12:46:05;-2.30;1.00
2657;DHT22;1338;48.176;11.792;2022-12-18T12:48:44;-2.80;1.00
2657;DHT22;1338;48.176;11.792;2022-12-18T12:51:17;-2.40;1.00
2657;DHT22;1338;48.176;11.792;2022-12-18T12:53:48;-2.60;1.00
2657;DHT22;1338;48.176;11.792;2022-12-18T12:56:18;-2.90;1.00
2657;DHT22;1338;48.176;11.792;2022-12-18T12:58:57;-2.40;1.00
2657;DHT22;1338;48.176;11.792;2022-12-18T13:01:33;-2.60;1.00
2657;DHT22;1338;48.176;11.792;2022-12-18T13:04:15;-2.60;1.00
2657;DHT22;1338;48.176;11.792;2022-12-18T13:06:52;-2.40;1.00
2657;DHT22;1338;48.176;11.792;2022-12-18T13:09:23;-2.50;1.00
2657;DHT22;1338;48.176;11.792;2022-12-18T13:11:51;-2.80;1.00
2657;DHT22;1338;48.176;11.792;2022-12-18T13:14:40;-3.00;1.00
2657;DHT22;1338;48.176;11.792;2022-12-18T13:17:30;-3.20;1.00
2657;DHT22;1338;48.176;11.792;2022-12-18T13:20:11;-2.90;1.00
2657;DHT22;1338;48.176;11.792;2022-12-18T13:22:44;-2.70;1.00
2657;DHT22;1338;48.176;11.792;2022-12-18T13:25:33;-2.90;1.00
2657;DHT22;1338;48.176;11.792;2022-12-18T13:28:07;-3.10;1.00
2657;DHT22;1338;48.176;11.792;2022-12-18T13:30:48;-3.10;1.00
2657;DHT22;1338;48.176;11.792;2022-12-18T13:33:40;-2.70;1.00
2657;DHT22;1338;48.176;11.792;2022-12-18T13:36:31;-2.80;1.00
2657;DHT22;1338;48.176;11.792;2022-12-18T13:39:20;-2.90;1.00
2657;DHT22;1338;48.176;11.792;2022-12-18T13:46:02;-2.90;1.00
2657;DHT22;1338;48.176;11.792;2022-12-18T13:48:32;-2.90;1.00
2657;DHT22;1338;48.176;11.792;2022-12-18T13:51:05;-2.80;1.00
2657;DHT22;1338;48.176;11.792;2022-12-18T13:53:42;-2.80;1.00
2657;DHT22;1338;48.176;11.792;2022-12-18T13:56:16;-3.10;1.00
2657;DHT22;1338;48.176;11.792;2022-12-18T13:58:45;-3.10;1.00
2657;DHT22;1338;48.176;11.792;2022-12-18T14:01:22;-3.20;1.00
2657;DHT22;1338;48.176;11.792;2022-12-18T14:03:50;-3.30;1.00
2657;DHT22;1338;48.176;11.792;2022-12-18T14:06:20;-3.20;1.00
2657;DHT22;1338;48.176;11.792;2022-12-18T14:08:52;-3.20;1.00
2657;DHT22;1338;48.176;11.792;2022-12-18T14:11:22;-3.30;1.00
2657;DHT22;1338;48.176;11.792;2022-12-18T14:13:52;-3.40;1.00
2657;DHT22;1338;48.176;11.792;2022-12-18T14:16:22;-3.50;1.00
2657;DHT22;1338;48.176;11.792;2022-12-18T14:18:53;-3.40;1.00
2657;DHT22;1338;48.176;11.792;2022-12-18T14:21:34;-3.80;1.00
2657;DHT22;1338;48.176;11.792;2022-12-18T14:24:13;-4.00;1.00
2657;DHT22;1338;48.176;11.792;2022-12-18T14:26:45;-4.00;1.00
2657;DHT22;1338;48.176;11.792;2022-12-18T14:29:22;-3.80;1.00
2657;DHT22;1338;48.176;11.792;2022-12-18T14:32:09;-3.90;1.00
2657;DHT22;1338;48.176;11.792;2022-12-18T14:34:44;-3.90;1.00
2657;DHT22;1338;48.176;11.792;2022-12-18T14:37:13;-4.20;1.00
2657;DHT22;1338;48.176;11.792;2022-12-18T14:39:54;-4.30;1.00
2657;DHT22;1338;48.176;11.792;2022-12-18T14:42:24;-4.30;1.00
2657;DHT22;1338;48.176;11.792;2022-12-18T14:45:33;-3.90;1.00
2657;DHT22;1338;48.176;11.792;2022-12-18T14:48:12;-4.10;1.00
2657;DHT22;1338;48.176;11.792;2022-12-18T14:50:58;-4.10;1.00
2657;DHT22;1338;48.176;11.792;2022-12-18T14:53:35;-4.30;1.00
2657;DHT22;1338;48.176;11.792;2022-12-18T14:56:17;-4.40;1.00
2657;DHT22;1338;48.176;11.792;2022-12-18T14:58:49;-4.40;1.00
2657;DHT22;1338;48.176;11.792;2022-12-18T15:01:21;-4.60;1.00
2657;DHT22;1338;48.176;11.792;2022-12-18T15:03:52;-4.60;1.00
2657;DHT22;1338;48.176;11.792;2022-12-18T15:06:29;-4.50;1.00
2657;DHT22;1338;48.176;11.792;2022-12-18T15:08:59;-4.50;1.00
2657;DHT22;1338;48.176;11.792;2022-12-18T15:11:46;-4.60;1.00
2657;DHT22;1338;48.176;11.792;2022-12-18T15:14:34;-4.90;1.00
2657;DHT22;1338;48.176;11.792;2022-12-18T15:17:06;-5.00;1.00
2657;DHT22;1338;48.176;11.792;2022-12-18T15:19:38;-4.90;1.00
2657;DHT22;1338;48.176;11.792;2022-12-18T15:22:21;-5.00;1.00
2657;DHT22;1338;48.176;11.792;2022-12-18T15:24:51;-5.00;1.00
2657;DHT22;1338;48.176;11.792;2022-12-18T15:27:27;-5.00;1.00
2657;DHT22;1338;48.176;11.792;2022-12-18T15:30:00;-5.10;1.00
2657;DHT22;1338;48.176;11.792;2022-12-18T15:32:29;-5.10;1.00
2657;DHT22;1338;48.176;11.792;2022-12-18T15:35:07;-5.10;1.00
2657;DHT22;1338;48.176;11.792;2022-12-18T15:37:39;-5.10;1.00
2657;DHT22;1338;48.176;11.792;2022-12-18T15:40:11;-5.00;16.70
2657;DHT22;1338;48.176;11.792;2022-12-18T15:42:44;-5.10;1.00
2657;DHT22;1338;48.176;11.792;2022-12-18T15:45:31;-4.80;99.90
2657;DHT22;1338;48.176;11.792;2022-12-18T15:47:59;-5.10;1.00
2657;DHT22;1338;48.176;11.792;2022-12-18T15:50:27;-4.90;1.00
2657;DHT22;1338;48.176;11.792;2022-12-18T15:52:56;-4.80;1.00
2657;DHT22;1338;48.176;11.792;2022-12-18T15:55:24;-4.80;1.00
2657;DHT22;1338;48.176;11.792;2022-12-18T15:58:11;-5.10;1.00
2657;DHT22;1338;48.176;11.792;2022-12-18T16:00:41;-5.00;1.00
2657;DHT22;1338;48.176;11.792;2022-12-18T16:03:12;-5.20;1.00
2657;DHT22;1338;48.176;11.792;2022-12-18T16:05:40;-5.30;1.00
2657;DHT22;1338;48.176;11.792;2022-12-18T16:08:09;-5.60;1.00
2657;DHT22;1338;48.176;11.792;2022-12-18T16:10:37;-5.40;90.10
2657;DHT22;1338;48.176;11.792;2022-12-18T16:13:08;-4.80;99.90
2657;DHT22;1338;48.176;11.792;2022-12-18T16:15:38;-4.10;46.90
2657;DHT22;1338;48.176;11.792;2022-12-18T16:18:06;-5.10;1.00
2657;DHT22;1338;48.176;11.792;2022-12-18T16:20:35;-5.60;1.00
2657;DHT22;1338;48.176;11.792;2022-12-18T16:23:03;-5.50;16.10
2657;DHT22;1338;48.176;11.792;2022-12-18T16:25:32;-5.00;76.20
2657;DHT22;1338;48.176;11.792;2022-12-18T16:28:00;-5.60;1.00
2657;DHT22;1338;48.176;11.792;2022-12-18T16:30:30;-5.70;1.00
2657;DHT22;1338;48.176;11.792;2022-12-18T16:33:05;-5.40;99.90